Time;durP1;ratioP1;P1;durP2;ratioP2;P2;SDS_P1;SDS_P2;PMS_P1;PMS_P2;Temp;Humidity;BMP_temperature;BMP_pressure;BME280_temperature;BME280_humidity;BME280_pressure;Samples;Min_cycle;Max_cycle;Signal;HPM_P1;HPM_P2
2023/01/27 00:01:16;;;;;;;119.10;60.40;;;;;;;-0.62;76.47;97191.15;108906;1251;101273;-76
2023/01/27 00:03:44;;;;;;;128.60;63.50;;;;;;;-0.64;76.49;97191.71;108586;1251;101144;-76
2023/01/27 00:06:12;;;;;;;128.90;64.80;;;;;;;-0.66;76.56;97187.54;108835;1251;95638;-75
2023/01/27 00:08:40;;;;;;;134.60;62.60;;;;;;;-0.67;76.64;97186.36;108849;1251;96031;-76
2023/01/27 00:13:53;;;;;;;134.60;67.40;;;;;;;-0.64;76.62;97186.41;108893;1251;100445;-75
2023/01/27 00:16:21;;;;;;;122.60;60.60;;;;;;;-0.66;76.55;97189.40;108649;1251;100118;-76
2023/01/27 00:18:50;;;;;;;121.20;62.00;;;;;;;-0.68;76.66;97191.23;108836;1251;95870;-74
2023/01/27 00:26:49;;;;;;;125.90;63.60;;;;;;;-0.69;76.67;97191.00;108751;1251;101327;-75
2023/01/27 00:29:17;;;;;;;114.70;57.80;;;;;;;-0.72;76.74;97194.83;108804;1251;100048;-76
2023/01/27 00:34:30;;;;;;;117.90;57.00;;;;;;;-0.74;76.80;97193.36;108891;1251;96039;-76
2023/01/27 00:36:58;;;;;;;130.50;58.90;;;;;;;-0.77;76.76;97194.05;108608;1250;103495;-75
2023/01/27 00:39:26;;;;;;;114.20;58.30;;;;;;;-0.84;76.69;97191.85;108525;1251;101397;-74
2023/01/27 00:41:54;;;;;;;114.90;57.60;;;;;;;-0.86;76.82;97188.70;108843;1251;100150;-75
2023/01/27 00:44:22;;;;;;;106.70;54.70;;;;;;;-0.84;76.82;97190.08;108705;1251;95585;-75
2023/01/27 00:46:51;;;;;;;100.50;51.40;;;;;;;-0.82;76.86;97191.30;108539;1251;177476;-75
2023/01/27 00:49:19;;;;;;;101.00;51.60;;;;;;;-0.80;76.93;97191.83;108863;1255;104011;-74
2023/01/27 00:51:47;;;;;;;94.70;48.90;;;;;;;-0.78;76.88;97191.69;108661;1251;101451;-75
2023/01/27 00:54:15;;;;;;;89.10;47.80;;;;;;;-0.78;76.83;97190.23;108648;1251;99844;-75
2023/01/27 00:56:43;;;;;;;86.00;44.80;;;;;;;-0.79;76.87;97188.04;108792;1251;95569;-75
2023/01/27 00:59:11;;;;;;;75.10;41.10;;;;;;;-0.79;76.70;97189.49;108880;1251;95692;-75
2023/01/27 01:01:40;;;;;;;63.70;36.20;;;;;;;-0.78;76.80;97194.31;108863;1251;103617;-74
2023/01/27 01:04:08;;;;;;;59.80;32.20;;;;;;;-0.75;76.86;97195.28;108886;1251;101506;-75
2023/01/27 01:06:36;;;;;;;57.40;33.00;;;;;;;-0.74;76.71;97189.17;108788;1251;100009;-75
2023/01/27 01:09:04;;;;;;;59.90;32.50;;;;;;;-0.76;76.47;97189.17;108834;1251;95656;-75
2023/01/27 01:11:32;;;;;;;64.60;35.00;;;;;;;-0.78;76.46;97189.32;108900;1251;96048;-74
2023/01/27 01:14:00;;;;;;;71.40;38.60;;;;;;;-0.77;76.51;97193.66;108910;1251;103672;-74
2023/01/27 01:16:28;;;;;;;87.30;45.10;;;;;;;-0.77;76.48;97194.20;108913;1251;101579;-75
2023/01/27 01:18:58;;;;;;;90.80;46.60;;;;;;;-0.74;76.54;97193.77;108839;1251;99929;-74
2023/01/27 01:21:26;;;;;;;90.40;49.40;;;;;;;-0.74;76.51;97193.38;108846;1251;95594;-76
2023/01/27 01:23:54;;;;;;;108.50;55.40;;;;;;;-0.75;76.46;97192.61;108878;1251;96028;-76
2023/01/27 01:26:22;;;;;;;114.30;60.80;;;;;;;-0.77;76.49;97190.63;108895;1251;103654;-75
2023/01/27 01:28:50;;;;;;;116.80;62.50;;;;;;;-0.78;76.57;97184.55;108855;1251;101034;-76
2023/01/27 01:31:19;;;;;;;129.90;67.20;;;;;;;-0.77;76.47;97181.64;108819;1251;100061;-74
2023/01/27 01:33:48;;;;;;;145.40;72.90;;;;;;;-0.77;76.55;97185.02;108852;1251;95529;-75
2023/01/27 01:36:19;;;;;;;133.30;66.40;;;;;;;-0.78;76.58;97182.79;108880;1251;96562;-75
2023/01/27 01:38:47;;;;;;;140.30;69.10;;;;;;;-0.79;76.51;97179.59;108597;1252;103524;-74
2023/01/27 01:41:19;;;;;;;129.80;65.10;;;;;;;-0.80;76.39;97175.20;108856;1251;101049;-76
2023/01/27 01:43:50;;;;;;;135.60;68.10;;;;;;;-0.80;76.63;97173.50;108633;1251;99915;-75
2023/01/27 01:46:19;;;;;;;136.70;70.30;;;;;;;-0.82;76.60;97169.45;108495;1251;96138;-75
2023/01/27 01:48:55;;;;;;;137.80;69.80;;;;;;;-0.82;76.66;97168.48;108881;1251;96102;-75
2023/01/27 01:51:27;;;;;;;131.00;66.40;;;;;;;-0.81;76.58;97165.44;108896;1251;103580;-74
2023/01/27 01:54:01;;;;;;;134.60;69.40;;;;;;;-0.83;76.71;97167.04;108871;1251;101562;-74
2023/01/27 01:56:54;;;;;;;127.70;66.10;;;;;;;-0.84;76.78;97163.41;108757;1251;100093;-75
2023/01/27 01:59:31;;;;;;;124.80;64.20;;;;;;;-0.84;76.80;97162.69;108826;1251;95919;-76
2023/01/27 02:02:03;;;;;;;130.50;67.40;;;;;;;-0.84;76.83;97164.45;108729;1251;96071;-75
2023/01/27 02:04:37;;;;;;;133.20;69.40;;;;;;;-0.84;76.80;97159.90;108822;1251;103614;-75
2023/01/27 02:07:16;;;;;;;140.00;73.30;;;;;;;-0.85;76.74;97157.23;108894;1251;101094;-74
2023/01/27 02:09:44;;;;;;;143.30;74.10;;;;;;;-0.85;76.86;97158.09;108862;1251;99688;-75
2023/01/27 02:12:12;;;;;;;147.70;75.90;;;;;;;-0.84;76.85;97159.94;108906;1251;95582;-74
2023/01/27 02:14:41;;;;;;;141.80;74.80;;;;;;;-0.84;76.83;97156.72;108875;1251;96049;-75
2023/01/27 02:17:12;;;;;;;149.60;76.90;;;;;;;-0.84;76.77;97154.77;108934;1251;103540;-75
2023/01/27 02:19:53;;;;;;;142.10;72.90;;;;;;;-0.84;76.85;97155.47;108902;1251;101566;-75
2023/01/27 02:22:33;;;;;;;145.70;73.50;;;;;;;-0.83;76.82;97160.65;108833;1251;99890;-76
2023/01/27 02:25:14;;;;;;;139.00;72.20;;;;;;;-0.83;76.86;97164.89;108857;1251;95532;-76
2023/01/27 02:27:42;;;;;;;136.20;72.30;;;;;;;-0.84;76.96;97166.91;108866;1251;96098;-75
2023/01/27 02:30:11;;;;;;;134.70;69.60;;;;;;;-0.84;76.76;97167.17;108887;1251;103758;-75
2023/01/27 02:32:39;;;;;;;130.90;67.50;;;;;;;-0.85;76.73;97174.33;108903;1251;101167;-75
2023/01/27 02:35:11;;;;;;;130.50;66.60;;;;;;;-0.86;76.74;97171.27;108850;1251;100082;-76
2023/01/27 02:37:40;;;;;;;130.90;67.30;;;;;;;-0.86;76.80;97175.80;108852;1251;95550;-75
2023/01/27 02:40:10;;;;;;;131.90;66.40;;;;;;;-0.85;76.83;97176.08;108850;1251;96031;-75
2023/01/27 02:42:38;;;;;;;129.20;65.90;;;;;;;-0.86;76.71;97178.15;108866;1251;103236;-76
2023/01/27 02:45:07;;;;;;;133.00;67.20;;;;;;;-0.88;76.68;97178.80;108847;1251;101435;-75
2023/01/27 02:47:35;;;;;;;133.60;66.90;;;;;;;-0.88;76.78;97178.30;108599;1252;100118;-76
2023/01/27 02:50:03;;;;;;;127.60;66.80;;;;;;;-0.88;76.66;97182.05;108463;1253;95837;-76
2023/01/27 02:52:31;;;;;;;136.20;68.20;;;;;;;-0.89;76.58;97185.46;108884;1251;96500;-74
2023/01/27 02:54:59;;;;;;;140.70;70.10;;;;;;;-0.89;76.79;97181.22;108836;1251;103421;-74
2023/01/27 02:57:27;;;;;;;141.70;71.70;;;;;;;-0.89;76.80;97176.64;108872;1251;101826;-76
2023/01/27 02:59:55;;;;;;;138.50;70.30;;;;;;;-0.88;76.72;97174.11;108834;1251;99918;-74
2023/01/27 03:02:29;;;;;;;139.20;69.50;;;;;;;-0.87;76.83;97169.25;108644;1251;95776;-74
2023/01/27 03:04:57;;;;;;;134.80;71.30;;;;;;;-0.89;76.82;97172.55;108679;1251;96049;-75
2023/01/27 03:07:26;;;;;;;134.50;69.80;;;;;;;-0.89;76.83;97175.61;108877;1250;103229;-76
2023/01/27 03:09:54;;;;;;;128.70;67.70;;;;;;;-0.91;76.76;97174.02;108896;1251;101350;-75
2023/01/27 03:12:22;;;;;;;134.50;69.40;;;;;;;-0.92;76.82;97176.92;108631;1253;100147;-76
2023/01/27 03:20:23;;;;;;;128.20;66.10;;;;;;;-0.92;76.89;97178.72;108909;1250;103280;-75
2023/01/27 03:22:52;;;;;;;128.00;66.70;;;;;;;-0.91;76.88;97180.89;108901;1250;101295;-75
2023/01/27 03:25:20;;;;;;;133.10;67.10;;;;;;;-0.92;76.87;97177.06;108874;1251;100056;-75
2023/01/27 03:27:48;;;;;;;131.50;65.80;;;;;;;-0.92;76.97;97177.27;108881;1251;95607;-75
2023/01/27 03:30:16;;;;;;;133.20;67.30;;;;;;;-0.91;76.83;97175.59;108898;1251;96038;-75
2023/01/27 03:32:45;;;;;;;128.70;65.10;;;;;;;-0.91;76.91;97171.94;108579;1251;103605;-74
2023/01/27 03:35:17;;;;;;;125.20;64.00;;;;;;;-0.92;76.86;97166.69;108857;1251;101605;-75
2023/01/27 03:46:18;;;;;;;123.00;63.50;;;;;;;-0.92;76.63;97166.69;108939;1251;103805;-76
2023/01/27 03:48:51;;;;;;;128.00;63.30;;;;;;;-0.91;76.65;97166.94;108886;1251;100277;-75
2023/01/27 03:51:22;;;;;;;119.20;62.80;;;;;;;-0.89;76.73;97168.16;108862;1251;100174;-76
2023/01/27 03:53:50;;;;;;;126.10;63.40;;;;;;;-0.89;76.73;97166.27;108809;1251;95655;-74
2023/01/27 03:56:20;;;;;;;120.80;63.40;;;;;;;-0.90;76.81;97166.33;108815;1251;96027;-76
2023/01/27 03:58:50;;;;;;;122.70;62.80;;;;;;;-0.90;76.86;97164.88;108892;1250;103308;-76
2023/01/27 04:01:21;;;;;;;120.40;62.30;;;;;;;-0.90;76.82;97167.39;108684;1251;100976;-75
2023/01/27 04:06:57;;;;;;;117.40;62.20;;;;;;;-0.90;76.79;97167.00;108821;1251;95592;-75
2023/01/27 04:09:28;;;;;;;123.90;64.40;;;;;;;-0.87;76.81;97164.31;108852;1252;96088;-75
2023/01/27 04:11:59;;;;;;;117.90;61.50;;;;;;;-0.90;76.79;97159.97;108896;1251;102633;-75
2023/01/27 04:14:37;;;;;;;116.40;61.60;;;;;;;-0.93;76.82;97161.84;108919;1251;101329;-75
2023/01/27 04:17:17;;;;;;;118.30;61.20;;;;;;;-0.94;76.78;97163.33;108840;1251;100223;-75
2023/01/27 04:19:46;;;;;;;112.70;58.30;;;;;;;-0.94;76.75;97160.65;108846;1251;95784;-74
2023/01/27 04:22:16;;;;;;;117.30;58.30;;;;;;;-0.94;76.78;97158.75;108971;1249;96106;-76
2023/01/27 04:24:44;;;;;;;115.10;58.70;;;;;;;-0.94;76.84;97156.61;108921;1251;103597;-76
2023/01/27 04:27:17;;;;;;;113.60;59.70;;;;;;;-0.93;76.87;97159.70;108911;1251;100421;-74
2023/01/27 04:29:46;;;;;;;114.00;59.00;;;;;;;-0.93;76.80;97158.61;108889;1251;99942;-76
2023/01/27 04:32:14;;;;;;;117.60;59.50;;;;;;;-0.93;76.89;97157.41;108828;1251;95561;-74
2023/01/27 04:34:42;;;;;;;121.40;60.40;;;;;;;-0.93;76.87;97159.73;108876;1251;96140;-74
2023/01/27 04:37:11;;;;;;;114.10;57.70;;;;;;;-0.95;76.91;97163.05;108564;1252;104688;-74
2023/01/27 04:39:40;;;;;;;115.00;58.70;;;;;;;-0.95;77.10;97164.47;108811;1251;101459;-75
2023/01/27 04:42:08;;;;;;;113.10;59.30;;;;;;;-0.95;77.09;97168.24;108668;1251;100224;-75
2023/01/27 04:44:36;;;;;;;117.30;59.30;;;;;;;-0.97;76.85;97165.61;108562;1251;95596;-75
2023/01/27 04:47:04;;;;;;;115.20;59.50;;;;;;;-0.97;76.91;97164.55;108803;1251;96013;-75
2023/01/27 04:49:32;;;;;;;118.70;61.90;;;;;;;-0.97;76.95;97166.44;108919;1251;103667;-73
2023/01/27 04:52:00;;;;;;;114.40;59.90;;;;;;;-0.96;77.00;97163.83;108913;1251;101529;-74
2023/01/27 04:54:28;;;;;;;119.70;62.30;;;;;;;-0.94;77.00;97161.96;108802;1252;98732;-79
2023/01/27 04:57:02;;;;;;;115.30;61.00;;;;;;;-0.96;77.16;97164.05;108802;1251;95514;-76
2023/01/27 04:59:30;;;;;;;117.00;59.80;;;;;;;-0.96;77.12;97161.05;108847;1251;96061;-76
2023/01/27 05:01:59;;;;;;;121.60;62.10;;;;;;;-0.96;77.11;97162.66;108572;1251;102407;-76
2023/01/27 05:04:27;;;;;;;121.80;62.50;;;;;;;-0.98;77.16;97162.86;108410;1251;100406;-76
2023/01/27 05:06:55;;;;;;;122.60;63.10;;;;;;;-0.97;77.13;97164.58;108529;1252;99935;-75
2023/01/27 05:09:23;;;;;;;123.10;63.90;;;;;;;-0.99;77.25;97168.04;108875;1251;95574;-75
2023/01/27 05:11:51;;;;;;;122.70;64.70;;;;;;;-1.00;77.36;97165.15;108883;1251;96040;-74
2023/01/27 05:14:24;;;;;;;126.30;66.60;;;;;;;-1.00;77.38;97164.98;108884;1251;103098;-74
2023/01/27 05:16:52;;;;;;;128.80;68.00;;;;;;;-0.99;77.43;97164.75;108882;1251;102011;-75
2023/01/27 05:19:20;;;;;;;136.00;68.10;;;;;;;-1.00;77.38;97165.85;108827;1251;98899;-75
2023/01/27 05:21:48;;;;;;;137.40;71.30;;;;;;;-1.00;77.41;97169.45;108873;1251;95668;-76
2023/01/27 05:24:16;;;;;;;136.90;70.60;;;;;;;-1.01;77.41;97171.95;108674;1253;96034;-76
2023/01/27 05:26:44;;;;;;;139.70;71.90;;;;;;;-1.01;77.49;97174.24;108798;1252;103794;-75
2023/01/27 05:29:13;;;;;;;140.50;70.30;;;;;;;-1.01;77.42;97176.08;108823;1251;101449;-75
2023/01/27 05:31:41;;;;;;;139.80;72.70;;;;;;;-1.04;77.36;97173.71;108791;1251;99898;-75
2023/01/27 05:34:09;;;;;;;138.90;70.60;;;;;;;-1.06;77.48;97178.45;108813;1251;95575;-75
2023/01/27 05:36:37;;;;;;;130.90;67.60;;;;;;;-1.04;77.61;97177.95;108838;1251;96028;-76
2023/01/27 05:39:05;;;;;;;127.50;64.70;;;;;;;-1.04;77.56;97179.28;108837;1253;103608;-76
2023/01/27 05:41:33;;;;;;;125.50;66.00;;;;;;;-1.05;77.54;97181.94;108721;1251;101589;-76
2023/01/27 05:44:02;;;;;;;135.20;65.70;;;;;;;-1.06;77.62;97184.95;108896;1251;99032;-74
2023/01/27 05:46:32;;;;;;;123.10;65.50;;;;;;;-1.06;77.60;97183.55;108787;1251;96034;-75
2023/01/27 05:49:04;;;;;;;127.90;65.80;;;;;;;-1.09;77.51;97188.04;108668;1251;96032;-76
2023/01/27 05:51:39;;;;;;;122.50;62.20;;;;;;;-1.09;77.35;97187.54;108613;1253;103463;-75
2023/01/27 05:54:08;;;;;;;118.30;61.10;;;;;;;-1.10;77.26;97183.54;108827;1252;101362;-75
2023/01/27 05:56:36;;;;;;;110.30;59.00;;;;;;;-1.08;77.31;97184.30;108822;1251;100251;-74
2023/01/27 05:59:05;;;;;;;121.60;59.40;;;;;;;-1.06;77.27;97182.70;108869;1251;95555;-74
2023/01/27 06:01:36;;;;;;;119.30;59.50;;;;;;;-1.05;77.20;97181.02;108891;1251;96058;-74
2023/01/27 06:04:05;;;;;;;124.00;60.80;;;;;;;-1.04;77.29;97180.43;108843;1251;103753;-75
2023/01/27 06:06:34;;;;;;;119.90;61.10;;;;;;;-1.04;77.21;97187.98;108890;1251;109971;-76
2023/01/27 06:09:02;;;;;;;121.00;61.70;;;;;;;-1.03;77.30;97188.80;108839;1251;99868;-75
2023/01/27 06:11:30;;;;;;;120.80;63.20;;;;;;;-1.03;77.23;97189.47;108862;1251;95569;-75
2023/01/27 06:13:58;;;;;;;126.20;67.40;;;;;;;-1.02;77.27;97184.48;108875;1251;95990;-75
2023/01/27 06:16:26;;;;;;;123.50;64.30;;;;;;;-1.03;77.38;97183.64;108903;1251;103720;-74
2023/01/27 06:18:54;;;;;;;128.40;67.70;;;;;;;-1.03;77.40;97183.97;108895;1251;101249;-74
2023/01/27 06:21:22;;;;;;;131.20;65.50;;;;;;;-1.03;77.40;97180.96;108626;1251;99933;-75
2023/01/27 06:23:52;;;;;;;143.70;68.90;;;;;;;-1.05;77.43;97182.77;108849;1251;95552;-75
2023/01/27 06:26:20;;;;;;;135.20;67.30;;;;;;;-1.09;77.45;97183.08;108884;1251;96024;-75
2023/01/27 06:28:48;;;;;;;125.40;64.60;;;;;;;-1.15;77.45;97180.17;108668;1251;102176;-74
2023/01/27 06:31:21;;;;;;;142.00;68.40;;;;;;;-1.21;77.56;97185.98;108831;1251;101483;-75
2023/01/27 06:33:50;;;;;;;145.90;74.20;;;;;;;-1.22;77.55;97191.41;108846;1251;99015;-74
2023/01/27 06:36:21;;;;;;;156.90;76.30;;;;;;;-1.20;77.61;97195.98;108852;1251;95577;-75
2023/01/27 06:38:50;;;;;;;197.20;92.80;;;;;;;-1.19;77.79;97190.57;108852;1251;96033;-75
2023/01/27 06:41:18;;;;;;;184.10;90.90;;;;;;;-1.16;77.71;97194.23;108596;1254;104075;-75
2023/01/27 06:43:47;;;;;;;165.90;82.10;;;;;;;-1.13;77.72;97191.65;108582;1251;101206;-76
2023/01/27 06:46:15;;;;;;;152.60;76.80;;;;;;;-1.12;77.68;97197.48;108872;1251;98956;-74
2023/01/27 06:48:43;;;;;;;132.70;67.80;;;;;;;-1.11;77.53;97200.30;108855;1251;95631;-74
2023/01/27 06:51:11;;;;;;;133.70;65.80;;;;;;;-1.12;77.40;97199.46;108870;1251;95980;-74
2023/01/27 06:53:39;;;;;;;116.10;58.60;;;;;;;-1.11;77.52;97202.19;108850;1251;103721;-74
2023/01/27 06:56:07;;;;;;;91.80;48.20;;;;;;;-1.13;77.32;97204.48;108805;1251;101260;-74
2023/01/27 06:58:35;;;;;;;94.10;47.10;;;;;;;-1.15;77.01;97208.45;108881;1251;100001;-75
2023/01/27 07:01:07;;;;;;;99.60;48.90;;;;;;;-1.17;76.95;97211.37;108829;1251;95873;-74
2023/01/27 07:03:35;;;;;;;90.00;46.00;;;;;;;-1.16;76.87;97211.62;108861;1251;96490;-75
2023/01/27 07:06:03;;;;;;;81.30;42.60;;;;;;;-1.14;76.71;97213.98;108862;1251;103510;-74
2023/01/27 07:08:31;;;;;;;76.50;42.20;;;;;;;-1.13;76.68;97212.45;108835;1250;101428;-74
2023/01/27 07:11:02;;;;;;;84.10;45.40;;;;;;;-1.12;76.60;97212.02;108826;1251;100007;-73
2023/01/27 07:13:31;;;;;;;89.50;45.60;;;;;;;-1.09;76.41;97212.24;108861;1251;95547;-75
2023/01/27 07:15:59;;;;;;;89.10;44.40;;;;;;;-1.06;76.56;97212.36;108909;1251;96184;-74
2023/01/27 07:18:27;;;;;;;84.10;43.60;;;;;;;-1.06;76.43;97211.67;108851;1251;103437;-75
2023/01/27 07:20:55;;;;;;;89.60;44.70;;;;;;;-1.06;76.47;97215.34;108869;1251;101332;-75
2023/01/27 07:23:23;;;;;;;81.00;43.40;;;;;;;-1.05;76.30;97215.07;108574;1251;99979;-74
2023/01/27 07:25:51;;;;;;;76.60;41.60;;;;;;;-1.04;76.20;97215.71;108798;1251;95560;-74
2023/01/27 07:28:19;;;;;;;78.80;40.20;;;;;;;-1.04;76.20;97216.44;108872;1251;96026;-75
2023/01/27 07:30:47;;;;;;;82.20;42.30;;;;;;;-1.04;76.13;97225.39;108821;1251;103706;-74
2023/01/27 07:33:15;;;;;;;78.60;42.60;;;;;;;-0.99;76.17;97230.30;108892;1251;100355;-74
2023/01/27 07:35:43;;;;;;;111.40;56.60;;;;;;;-0.96;76.18;97231.69;108885;1251;99498;-75
2023/01/27 07:38:11;;;;;;;99.80;52.90;;;;;;;-0.93;76.09;97232.48;108527;1252;95713;-74
2023/01/27 07:40:39;;;;;;;81.50;44.50;;;;;;;-0.92;76.01;97233.78;108887;1251;96646;-74
2023/01/27 07:43:08;;;;;;;84.70;45.20;;;;;;;-0.90;75.90;97236.23;108848;1250;103755;-76
2023/01/27 07:45:36;;;;;;;80.40;42.90;;;;;;;-0.87;75.88;97236.52;108851;1250;100531;-75
2023/01/27 07:48:06;;;;;;;79.20;42.70;;;;;;;-0.84;75.84;97235.86;108856;1251;100025;-74
2023/01/27 07:50:39;;;;;;;81.90;43.50;;;;;;;-0.80;75.92;97243.47;108844;1251;95685;-75
2023/01/27 07:53:08;;;;;;;81.00;44.40;;;;;;;-0.79;75.77;97246.65;108894;1251;96507;-76
2023/01/27 07:55:36;;;;;;;85.70;43.40;;;;;;;-0.79;75.67;97247.91;108554;1252;103505;-74
2023/01/27 07:58:04;;;;;;;79.70;42.70;;;;;;;-0.77;75.63;97249.39;108906;1251;101781;-74
2023/01/27 08:00:32;;;;;;;75.00;40.60;;;;;;;-0.75;75.65;97246.88;108874;1251;99932;-74
2023/01/27 08:03:02;;;;;;;79.50;41.40;;;;;;;-0.73;75.50;97239.23;108828;1251;95585;-74
2023/01/27 08:05:33;;;;;;;69.50;38.70;;;;;;;-0.71;75.46;97242.74;108875;1253;96031;-76
2023/01/27 08:08:03;;;;;;;73.40;39.80;;;;;;;-0.68;75.27;97244.63;108892;1251;103633;-75
2023/01/27 08:10:31;;;;;;;75.10;41.50;;;;;;;-0.67;75.23;97244.11;108462;1251;100612;-76
2023/01/27 08:13:00;;;;;;;71.90;39.80;;;;;;;-0.68;74.93;97248.25;108837;1251;99850;-75
2023/01/27 08:15:28;;;;;;;71.70;38.90;;;;;;;-0.69;74.92;97254.76;108859;1251;95886;-74
2023/01/27 08:17:57;;;;;;;71.90;38.80;;;;;;;-0.68;74.82;97255.88;108870;1251;95989;-75
2023/01/27 08:20:27;;;;;;;74.20;39.50;;;;;;;-0.67;74.76;97255.95;108619;1256;103216;-76
2023/01/27 08:22:56;;;;;;;71.30;37.70;;;;;;;-0.64;74.73;97256.40;108503;1252;100364;-74
2023/01/27 08:25:25;;;;;;;69.60;39.50;;;;;;;-0.61;74.72;97254.15;108900;1251;98965;-75
2023/01/27 08:27:56;;;;;;;71.10;37.70;;;;;;;-0.59;74.51;97252.38;108876;1251;95540;-76
2023/01/27 08:30:25;;;;;;;71.50;39.30;;;;;;;-0.61;74.43;97251.50;108852;1251;96041;-75
2023/01/27 08:32:55;;;;;;;79.90;40.70;;;;;;;-0.61;74.35;97252.78;108898;1251;103721;-74
2023/01/27 08:35:23;;;;;;;69.60;37.90;;;;;;;-0.59;74.25;97254.47;108910;1251;101587;-75
2023/01/27 08:37:51;;;;;;;70.40;37.00;;;;;;;-0.56;74.22;97258.84;108850;1251;99014;-75
2023/01/27 08:40:19;;;;;;;69.50;38.80;;;;;;;-0.55;74.29;97256.60;108799;1251;95638;-75
2023/01/27 08:42:50;;;;;;;70.30;39.80;;;;;;;-0.53;74.20;97259.42;108886;1251;97089;-75
2023/01/27 08:45:18;;;;;;;67.20;38.30;;;;;;;-0.51;74.17;97260.59;108432;1251;103433;-75
2023/01/27 08:47:47;;;;;;;62.20;34.80;;;;;;;-0.50;73.93;97263.31;108948;1251;100312;-75
2023/01/27 08:50:15;;;;;;;62.60;34.90;;;;;;;-0.51;73.94;97264.86;108623;1251;99067;-74
2023/01/27 08:52:43;;;;;;;67.00;35.10;;;;;;;-0.50;73.91;97266.37;108866;1251;95568;-75
2023/01/27 08:55:11;;;;;;;61.80;33.20;;;;;;;-0.50;73.72;97268.15;108837;1251;97072;-76
2023/01/27 08:57:39;;;;;;;64.50;34.60;;;;;;;-0.53;73.64;97269.52;108849;1250;103529;-74
2023/01/27 09:00:11;;;;;;;62.50;36.30;;;;;;;-0.53;73.60;97267.38;108910;1251;101306;-75
2023/01/27 09:02:40;;;;;;;61.20;33.80;;;;;;;-0.50;73.56;97267.39;108872;1251;99656;-75
2023/01/27 09:05:08;;;;;;;66.20;34.50;;;;;;;-0.46;73.55;97267.78;108843;1251;95625;-75
2023/01/27 09:07:36;;;;;;;57.60;33.40;;;;;;;-0.44;73.52;97270.06;108913;1251;96028;-76
2023/01/27 09:10:05;;;;;;;63.00;34.90;;;;;;;-0.45;73.32;97271.48;108541;1251;103610;-74
2023/01/27 09:12:33;;;;;;;61.50;32.20;;;;;;;-0.44;73.34;97278.80;108844;1251;100953;-74
2023/01/27 09:15:01;;;;;;;60.70;32.50;;;;;;;-0.39;73.32;97276.81;108758;1251;100237;-74
2023/01/27 09:17:29;;;;;;;58.70;31.70;;;;;;;-0.38;73.08;97272.83;108821;1251;95589;-77
2023/01/27 09:19:58;;;;;;;56.70;33.00;;;;;;;-0.37;73.09;97267.80;108536;1256;96099;-76
2023/01/27 09:22:26;;;;;;;63.90;34.60;;;;;;;-0.34;73.07;97268.34;108653;1251;103267;-76
2023/01/27 09:24:54;;;;;;;66.30;33.60;;;;;;;-0.31;73.01;97266.29;108831;1251;101324;-76
2023/01/27 09:27:22;;;;;;;61.70;33.90;;;;;;;-0.29;73.13;97260.84;108820;1251;99885;-75
2023/01/27 09:29:50;;;;;;;62.80;35.10;;;;;;;-0.26;72.93;97257.38;108869;1251;95601;-74
2023/01/27 09:32:18;;;;;;;62.30;35.00;;;;;;;-0.24;72.82;97251.55;108890;1251;96032;-75
2023/01/27 09:34:46;;;;;;;50.70;28.60;;;;;;;-0.21;72.71;97246.27;108852;1250;104168;-76
2023/01/27 09:37:14;;;;;;;54.20;30.90;;;;;;;-0.20;72.72;97245.80;108896;1251;101172;-76
2023/01/27 09:39:49;;;;;;;53.20;29.10;;;;;;;-0.18;72.65;97236.96;108884;1251;100186;-75
2023/01/27 09:43:02;;;;;;;55.10;30.90;;;;;;;-0.15;72.60;97236.14;108591;1252;95994;-75
2023/01/27 09:46:00;;;;;;;52.20;30.10;;;;;;;-0.11;72.34;97233.75;108157;1259;97147;-75
2023/01/27 09:48:40;;;;;;;50.00;28.60;;;;;;;-0.13;72.08;97235.91;108231;1259;103098;-75
2023/01/27 09:51:32;;;;;;;55.30;29.80;;;;;;;-0.13;71.97;97239.23;108200;1259;101424;-77
2023/01/27 09:54:04;;;;;;;52.60;29.60;;;;;;;-0.15;71.77;97237.23;108212;1259;100427;-76
2023/01/27 09:57:17;;;;;;;51.80;30.00;;;;;;;-0.15;71.74;97231.54;108219;1259;95719;-74
2023/01/27 10:00:02;;;;;;;53.30;30.00;;;;;;;-0.11;71.82;97237.67;107743;1267;95707;-76
2023/01/27 10:02:55;;;;;;;57.40;31.60;;;;;;;-0.10;71.54;97243.73;107746;1267;103263;-75
2023/01/27 10:05:36;;;;;;;54.20;30.40;;;;;;;-0.09;71.59;97243.64;107764;1267;101402;-75
2023/01/27 10:08:26;;;;;;;52.90;32.10;;;;;;;-0.08;71.43;97247.45;107738;1267;100157;-75
2023/01/27 10:11:15;;;;;;;56.10;31.80;;;;;;;-0.09;71.39;97247.77;107718;1267;95658;-75
2023/01/27 10:13:43;;;;;;;56.90;32.30;;;;;;;-0.08;71.50;97248.45;107663;1267;96080;-75
2023/01/27 10:16:12;;;;;;;61.40;33.10;;;;;;;-0.06;71.49;97242.77;107739;1267;103581;-76
2023/01/27 10:18:42;;;;;;;62.20;34.30;;;;;;;-0.02;71.58;97240.33;107628;1268;101379;-76
2023/01/27 10:21:34;;;;;;;60.00;34.70;;;;;;;0.04;71.56;97242.21;107635;1267;99821;-75
2023/01/27 10:24:22;;;;;;;62.80;35.70;;;;;;;0.07;71.39;97240.36;107690;1268;95636;-75
2023/01/27 10:26:55;;;;;;;64.90;35.50;;;;;;;0.09;71.52;97239.23;107154;1267;96210;-75
2023/01/27 10:29:46;;;;;;;66.70;36.50;;;;;;;0.12;71.50;97243.55;107699;1267;103798;-75
2023/01/27 10:32:26;;;;;;;69.10;36.70;;;;;;;0.11;71.50;97243.27;107757;1267;101220;-75
2023/01/27 10:35:27;;;;;;;68.40;36.90;;;;;;;0.13;71.58;97240.80;107656;1267;99742;-75
2023/01/27 10:38:15;;;;;;;70.00;37.10;;;;;;;0.15;71.60;97235.96;107739;1266;96031;-74
2023/01/27 10:41:12;;;;;;;67.40;38.20;;;;;;;0.16;71.51;97237.46;107740;1266;96072;-75
2023/01/27 10:44:03;;;;;;;63.80;37.30;;;;;;;0.17;71.44;97237.93;107136;1273;103844;-75
2023/01/27 10:47:16;;;;;;;67.90;37.30;;;;;;;0.16;71.31;97231.45;106688;1277;101302;-75
2023/01/27 10:53:15;;;;;;;67.90;36.70;;;;;;;0.22;71.44;97239.19;106101;1283;96011;-75
2023/01/27 10:59:15;;;;;;;76.30;41.60;;;;;;;0.22;71.62;97246.92;106091;1284;104634;-75
2023/01/27 11:02:18;;;;;;;70.80;40.30;;;;;;;0.20;71.52;97247.70;106301;1278;102242;-76
2023/01/27 11:04:52;;;;;;;73.60;41.80;;;;;;;0.18;71.53;97247.73;106642;1278;100306;-75
2023/01/27 11:07:22;;;;;;;85.20;44.60;;;;;;;0.18;71.70;97251.22;106672;1277;95730;-75
2023/01/27 11:09:58;;;;;;;83.60;45.20;;;;;;;0.18;71.65;97251.42;106650;1278;96118;-75
2023/01/27 11:12:34;;;;;;;83.70;45.30;;;;;;;0.18;71.73;97249.83;106677;1278;103653;-75
2023/01/27 11:15:35;;;;;;;80.90;43.70;;;;;;;0.18;71.78;97250.20;106820;1271;101541;-75
2023/01/27 11:18:17;;;;;;;76.50;41.50;;;;;;;0.14;71.75;97250.90;107351;1270;98964;-75
2023/01/27 11:20:52;;;;;;;79.90;43.50;;;;;;;0.06;71.73;97249.60;107669;1265;95645;-74
2023/01/27 11:23:24;;;;;;;80.90;42.90;;;;;;;-0.00;71.96;97247.21;107845;1259;96151;-75
2023/01/27 11:26:03;;;;;;;71.00;40.80;;;;;;;-0.03;72.05;97243.78;108278;1259;103698;-76
2023/01/27 11:28:42;;;;;;;83.10;43.90;;;;;;;-0.03;72.19;97244.01;108590;1251;101280;-75
2023/01/27 11:31:31;;;;;;;91.70;45.20;;;;;;;-0.03;72.25;97244.61;108815;1251;98408;-75
2023/01/27 11:34:30;;;;;;;87.40;46.50;;;;;;;-0.01;72.22;97237.23;108791;1252;97122;-75
2023/01/27 11:36:59;;;;;;;93.20;46.70;;;;;;;-0.00;72.17;97237.31;108892;1251;96121;-76
2023/01/27 11:39:32;;;;;;;82.60;43.90;;;;;;;0.00;72.27;97237.97;108870;1251;103560;-75
2023/01/27 11:42:00;;;;;;;72.40;41.20;;;;;;;0.00;72.19;97240.30;108875;1250;101326;-76
2023/01/27 11:44:34;;;;;;;82.00;45.30;;;;;;;-0.04;72.18;97236.23;108855;1251;98998;-75
2023/01/27 11:47:06;;;;;;;80.80;44.20;;;;;;;-0.06;72.11;97227.45;108660;1251;95735;-75
2023/01/27 11:49:37;;;;;;;;;;;;;;;-0.09;72.13;97229.14;108906;1251;95799;-77
2023/01/27 11:52:16;;;;;;;79.80;42.30;;;;;;;-0.12;72.18;97229.58;108919;1250;103573;-75
2023/01/27 11:54:53;;;;;;;81.40;46.00;;;;;;;-0.11;72.26;97225.23;108819;1253;101152;-75
2023/01/27 11:57:25;;;;;;;77.50;43.20;;;;;;;-0.12;72.16;97224.53;108815;1251;99889;-76